Time;durP1;ratioP1;P1;durP2;ratioP2;P2;SDS_P1;SDS_P2;PMS_P1;PMS_P2;Temp;Humidity;BMP_temperature;BMP_pressure;BME280_temperature;BME280_humidity;BME280_pressure;Samples;Min_cycle;Max_cycle;Signal;HPM_P1;HPM_P2
2021/05/16 00:02:00;;;;;;;8.50;2.50;;;9.60;99.90;;;;;;4861251;29;20180;-82
2021/05/16 00:04:26;;;;;;;5.17;2.20;;;9.60;99.90;;;;;;4860977;29;20592;-80
2021/05/16 00:06:52;;;;;;;9.02;2.00;;;9.60;99.90;;;;;;4861435;29;20180;-81
2021/05/16 00:09:18;;;;;;;8.70;1.95;;;9.70;99.90;;;;;;4861338;29;20188;-79
2021/05/16 00:11:44;;;;;;;8.07;2.90;;;9.70;99.90;;;;;;4861292;29;20681;-79
2021/05/16 00:14:10;;;;;;;7.00;2.20;;;9.70;99.90;;;;;;4860956;29;20574;-81
2021/05/16 00:16:36;;;;;;;11.07;3.07;;;9.70;99.90;;;;;;4861002;29;20255;-79
2021/05/16 00:19:03;;;;;;;8.90;2.15;;;9.60;99.90;;;;;;4861430;29;20195;-81
2021/05/16 00:21:29;;;;;;;12.10;3.13;;;9.70;99.90;;;;;;4861149;29;20176;-82
2021/05/16 00:23:54;;;;;;;7.07;1.90;;;9.70;99.90;;;;;;4861234;29;20191;-80
2021/05/16 00:26:20;;;;;;;7.77;1.97;;;9.70;99.90;;;;;;4860820;29;20234;-78
2021/05/16 00:28:45;;;;;;;10.07;2.30;;;9.70;99.90;;;;;;4861131;29;20192;-80
2021/05/16 00:31:11;;;;;;;7.03;2.63;;;9.60;99.90;;;;;;4875320;29;20196;-81
2021/05/16 00:33:37;;;;;;;9.20;2.50;;;9.50;99.90;;;;;;4860784;29;20188;-82
2021/05/16 00:36:03;;;;;;;12.33;3.97;;;9.60;99.90;;;;;;4860470;29;20674;-80
2021/05/16 00:38:28;;;;;;;4.23;1.73;;;9.50;99.90;;;;;;4860930;29;20188;-82
2021/05/16 00:40:54;;;;;;;10.90;2.13;;;9.50;99.90;;;;;;4860974;29;20180;-80
2021/05/16 00:43:20;;;;;;;7.83;2.00;;;9.50;99.90;;;;;;4860843;29;20237;-82
2021/05/16 00:45:47;;;;;;;6.72;2.60;;;9.50;99.90;;;;;;4860574;29;20210;-81
2021/05/16 00:48:14;;;;;;;9.60;2.00;;;9.50;99.90;;;;;;4860893;29;20183;-80
2021/05/16 00:50:43;;;;;;;9.35;1.88;;;9.40;99.90;;;;;;4874937;29;20566;-80
2021/05/16 00:53:09;;;;;;;10.73;2.80;;;9.40;99.90;;;;;;4860847;29;20268;-81
2021/05/16 00:55:35;;;;;;;6.35;2.08;;;9.40;99.90;;;;;;4860385;29;20578;-81
2021/05/16 00:58:02;;;;;;;7.77;2.27;;;9.40;99.90;;;;;;4860774;29;20187;-82
2021/05/16 01:00:31;;;;;;;8.40;2.20;;;9.40;99.90;;;;;;4860719;29;20424;-79
2021/05/16 01:02:57;;;;;;;12.20;2.90;;;9.30;99.90;;;;;;4859402;29;20199;-81
2021/05/16 01:05:23;;;;;;;9.30;2.67;;;9.30;99.90;;;;;;4860615;29;20197;-80
2021/05/16 01:07:48;;;;;;;7.17;2.07;;;9.40;99.90;;;;;;4860676;29;20172;-80
2021/05/16 01:10:16;;;;;;;12.77;2.33;;;9.40;99.90;;;;;;4860671;29;20413;-80
2021/05/16 01:12:51;;;;;;;10.77;3.20;;;9.40;99.90;;;;;;4861024;29;20429;-80
2021/05/16 01:15:19;;;;;;;11.15;2.60;;;9.30;99.90;;;;;;4860260;29;20243;-79
2021/05/16 01:17:46;;;;;;;14.57;2.58;;;9.20;99.90;;;;;;4874782;29;20191;-80
2021/05/16 01:20:24;;;;;;;7.28;2.08;;;9.20;99.90;;;;;;4860634;29;20184;-81
2021/05/16 01:22:52;;;;;;;13.57;2.67;;;9.20;99.90;;;;;;4860633;29;20180;-80
2021/05/16 01:25:17;;;;;;;7.88;2.28;;;9.10;99.90;;;;;;4860173;29;20239;-82
2021/05/16 01:27:45;;;;;;;13.20;2.40;;;9.10;99.90;;;;;;4860900;29;20211;-79
2021/05/16 01:30:11;;;;;;;15.48;3.38;;;9.10;99.90;;;;;;4860566;29;20218;-81
2021/05/16 01:32:37;;;;;;;11.40;2.58;;;9.10;99.90;;;;;;4860339;29;20193;-81
2021/05/16 01:35:03;;;;;;;15.67;3.60;;;9.00;99.90;;;;;;4859988;29;20231;-82
2021/05/16 01:37:29;;;;;;;11.00;2.42;;;9.00;99.90;;;;;;4860639;29;20216;-80
2021/05/16 01:39:54;;;;;;;11.33;2.43;;;8.90;99.90;;;;;;4860554;29;20196;-79
2021/05/16 01:42:22;;;;;;;11.77;2.67;;;8.80;99.90;;;;;;4860521;29;20180;-82
2021/05/16 01:44:47;;;;;;;11.68;2.45;;;8.80;99.90;;;;;;4860011;29;20283;-82
2021/05/16 01:47:13;;;;;;;14.63;2.77;;;8.80;99.90;;;;;;4863678;29;20785;-80
2021/05/16 01:49:51;;;;;;;15.50;2.90;;;8.70;99.90;;;;;;4863797;29;20223;-82
2021/05/16 01:52:17;;;;;;;11.13;2.65;;;8.70;99.90;;;;;;4863672;29;20190;-79
2021/05/16 01:54:43;;;;;;;12.63;2.70;;;8.70;99.90;;;;;;4862079;29;20287;-80
2021/05/16 01:57:09;;;;;;;13.00;2.67;;;8.70;99.90;;;;;;4863269;29;20208;-81
2021/05/16 01:59:37;;;;;;;7.55;2.70;;;8.60;99.90;;;;;;4863447;29;20592;-81
2021/05/16 02:02:04;;;;;;;10.15;2.50;;;8.60;99.90;;;;;;4863449;29;20173;-78
2021/05/16 02:04:31;;;;;;;9.52;2.60;;;8.50;99.90;;;;;;4863252;29;20172;-79
2021/05/16 02:06:58;;;;;;;8.55;2.78;;;8.40;99.90;;;;;;4863581;29;20192;-79
2021/05/16 02:09:25;;;;;;;11.90;3.28;;;8.30;99.90;;;;;;4862114;29;20195;-79
2021/05/16 02:11:51;;;;;;;10.30;2.25;;;8.30;99.90;;;;;;4863374;29;20199;-81
2021/05/16 02:14:29;;;;;;;5.60;2.03;;;8.30;99.90;;;;;;4862902;29;20659;-80
2021/05/16 02:16:57;;;;;;;10.07;2.42;;;8.20;99.90;;;;;;4863283;29;20241;-80
2021/05/16 02:19:23;;;;;;;11.20;2.90;;;8.10;99.90;;;;;;4862991;29;20188;-79
2021/05/16 02:21:50;;;;;;;10.00;2.60;;;8.10;99.90;;;;;;4863448;29;20227;-82
2021/05/16 02:24:16;;;;;;;6.82;2.35;;;8.10;99.90;;;;;;4862981;29;20441;-81
2021/05/16 02:26:42;;;;;;;14.95;2.28;;;8.10;99.90;;;;;;4863175;29;20626;-80
2021/05/16 02:29:08;;;;;;;13.07;2.90;;;8.10;99.90;;;;;;4863140;29;20238;-81
2021/05/16 02:31:34;;;;;;;8.50;2.40;;;8.10;99.90;;;;;;4863001;29;20424;-79
2021/05/16 02:34:01;;;;;;;10.73;2.22;;;8.10;99.90;;;;;;4863027;29;20892;-80
2021/05/16 02:36:26;;;;;;;8.43;2.95;;;8.10;99.90;;;;;;4862642;29;20223;-79
2021/05/16 02:38:53;;;;;;;13.40;2.20;;;7.90;99.90;;;;;;4862651;29;20184;-79
2021/05/16 02:41:18;;;;;;;6.93;2.78;;;7.90;99.90;;;;;;4862763;29;20573;-80
2021/05/16 02:43:44;;;;;;;10.50;2.07;;;7.90;99.90;;;;;;4862654;29;20187;-80
2021/05/16 02:46:10;;;;;;;6.60;2.53;;;7.80;99.90;;;;;;4862421;29;20263;-78
2021/05/16 02:48:36;;;;;;;6.77;2.47;;;7.80;99.90;;;;;;4862740;29;20781;-78
2021/05/16 02:51:03;;;;;;;7.97;2.43;;;7.70;99.90;;;;;;4862695;29;20453;-80
2021/05/16 02:53:29;;;;;;;11.25;2.50;;;7.60;99.90;;;;;;4862433;29;20607;-81
2021/05/16 02:55:55;;;;;;;9.83;2.80;;;7.60;99.90;;;;;;4861842;29;20247;-81
2021/05/16 02:58:20;;;;;;;5.63;2.23;;;7.50;99.90;;;;;;4862510;29;20664;-79
2021/05/16 03:00:46;;;;;;;10.07;2.83;;;7.50;99.90;;;;;;4862458;29;20665;-81
2021/05/16 03:03:12;;;;;;;11.33;3.37;;;7.50;99.90;;;;;;4862391;29;20184;-79
2021/05/16 03:05:37;;;;;;;7.60;2.30;;;7.50;99.90;;;;;;4861977;29;20204;-78
2021/05/16 03:08:03;;;;;;;9.97;2.17;;;7.50;99.90;;;;;;4862212;29;20814;-80
2021/05/16 03:10:29;;;;;;;12.60;3.45;;;7.40;99.90;;;;;;4862415;29;20573;-77
2021/05/16 03:12:55;;;;;;;10.40;2.70;;;7.40;99.90;;;;;;4862185;29;20274;-79
2021/05/16 03:15:21;;;;;;;12.20;3.40;;;7.40;99.90;;;;;;4861589;29;20299;-80
2021/05/16 03:17:46;;;;;;;10.27;2.80;;;7.30;99.90;;;;;;4862239;29;20524;-78
2021/05/16 03:20:13;;;;;;;8.83;2.47;;;7.30;99.90;;;;;;4862235;29;20722;-79
2021/05/16 03:22:39;;;;;;;10.30;2.90;;;7.30;99.90;;;;;;4862047;29;20425;-81
2021/05/16 03:25:06;;;;;;;5.53;2.93;;;7.20;99.90;;;;;;4861658;29;20279;-78
2021/05/16 03:27:32;;;;;;;8.65;2.58;;;7.20;99.90;;;;;;4862075;29;20180;-81
2021/05/16 03:29:58;;;;;;;11.53;2.50;;;7.20;99.90;;;;;;4861889;29;20598;-81
2021/05/16 03:32:23;;;;;;;7.10;3.10;;;7.20;99.90;;;;;;4861942;29;20187;-81
2021/05/16 03:34:49;;;;;;;6.13;3.10;;;7.10;99.90;;;;;;4861600;29;20204;-79
2021/05/16 03:37:16;;;;;;;8.40;3.17;;;7.10;99.90;;;;;;4861875;29;20613;-80
2021/05/16 03:39:41;;;;;;;6.53;2.90;;;7.10;99.90;;;;;;4862033;29;20184;-79
2021/05/16 03:42:07;;;;;;;10.13;3.07;;;7.00;99.90;;;;;;4861764;29;20681;-80
2021/05/16 03:44:33;;;;;;;6.57;3.03;;;7.00;99.90;;;;;;4861380;29;20189;-78
2021/05/16 03:47:00;;;;;;;5.70;3.00;;;7.00;99.90;;;;;;4861725;29;20429;-82
2021/05/16 03:49:25;;;;;;;10.38;2.85;;;6.90;99.90;;;;;;4861693;29;20184;-78
2021/05/16 03:51:51;;;;;;;12.70;3.63;;;7.00;99.90;;;;;;4861544;29;20294;-79
2021/05/16 03:54:17;;;;;;;8.33;3.57;;;7.00;99.90;;;;;;4861091;29;20244;-80
2021/05/16 03:56:43;;;;;;;4.90;3.20;;;6.90;99.90;;;;;;4861309;29;20476;-80
2021/05/16 03:59:09;;;;;;;8.82;3.40;;;6.90;99.90;;;;;;4861483;29;20180;-82
2021/05/16 04:01:35;;;;;;;8.10;2.80;;;6.90;99.90;;;;;;4861458;29;20173;-80
2021/05/16 04:04:02;;;;;;;12.43;3.53;;;6.90;99.90;;;;;;4859943;29;20706;-80
2021/05/16 04:06:28;;;;;;;7.78;3.00;;;6.90;99.90;;;;;;4861027;29;20662;-80
2021/05/16 04:08:53;;;;;;;6.40;3.20;;;6.90;99.90;;;;;;4875058;29;20271;-80
2021/05/16 04:11:19;;;;;;;3.93;2.70;;;6.90;99.90;;;;;;4861686;29;20969;-78
2021/05/16 04:13:45;;;;;;;4.60;2.70;;;6.90;99.90;;;;;;4861293;29;20295;-79
2021/05/16 04:16:11;;;;;;;5.40;3.77;;;7.00;99.90;;;;;;4860722;29;20212;-81
2021/05/16 04:18:38;;;;;;;6.40;3.10;;;7.00;99.90;;;;;;4861169;29;20684;-79
2021/05/16 04:21:05;;;;;;;6.20;3.08;;;7.20;99.90;;;;;;4861065;29;20184;-78
2021/05/16 04:23:31;;;;;;;7.38;3.00;;;7.30;99.90;;;;;;4861428;29;20184;-79
2021/05/16 04:25:56;;;;;;;6.90;2.50;;;7.40;99.90;;;;;;4875226;29;20368;-79
2021/05/16 04:28:22;;;;;;;4.63;2.80;;;7.50;99.90;;;;;;4861273;29;20659;-80
2021/05/16 04:30:48;;;;;;;8.50;3.40;;;7.60;99.90;;;;;;4861368;29;20247;-79
2021/05/16 04:33:15;;;;;;;10.60;3.27;;;7.70;99.90;;;;;;4861056;29;20184;-81
2021/05/16 04:35:41;;;;;;;5.50;3.20;;;7.80;99.90;;;;;;4844258;29;20227;-78
2021/05/16 04:38:06;;;;;;;5.40;3.15;;;7.90;99.90;;;;;;4861021;29;20697;-78
2021/05/16 04:40:32;;;;;;;8.20;4.00;;;8.10;99.90;;;;;;4860950;29;20183;-79
2021/05/16 04:42:58;;;;;;;7.53;2.87;;;8.20;99.90;;;;;;4861042;29;20596;-77
2021/05/16 04:45:23;;;;;;;13.23;3.57;;;8.20;99.90;;;;;;4859408;29;20200;-81
2021/05/16 04:47:49;;;;;;;5.60;3.27;;;8.30;99.90;;;;;;4860925;29;20196;-80
2021/05/16 04:50:18;;;;;;;8.07;3.50;;;8.40;99.90;;;;;;4860788;29;20184;-79
2021/05/16 04:52:43;;;;;;;4.05;2.50;;;8.50;99.90;;;;;;4875037;29;20718;-80
2021/05/16 04:55:09;;;;;;;9.93;2.90;;;8.50;99.90;;;;;;4860427;29;20291;-81
2021/05/16 04:57:35;;;;;;;7.07;3.00;;;8.50;99.90;;;;;;4860736;29;20252;-80
2021/05/16 05:00:01;;;;;;;5.70;3.10;;;8.60;99.90;;;;;;4860698;29;20222;-81
2021/05/16 05:02:27;;;;;;;10.43;3.65;;;8.60;99.90;;;;;;4860556;29;20232;-80
2021/05/16 05:04:54;;;;;;;8.20;2.97;;;8.70;99.90;;;;;;4860369;29;21082;-82
2021/05/16 05:07:20;;;;;;;5.75;2.90;;;8.70;99.90;;;;;;4860739;29;20188;-81
2021/05/16 05:09:45;;;;;;;7.03;3.47;;;8.80;99.90;;;;;;4860704;29;20192;-80
2021/05/16 05:12:11;;;;;;;6.93;3.00;;;8.90;99.90;;;;;;4860618;29;20188;-82
2021/05/16 05:14:36;;;;;;;6.43;3.17;;;9.00;99.90;;;;;;4860174;29;20204;-79
2021/05/16 05:17:02;;;;;;;3.30;2.40;;;9.10;99.90;;;;;;4860827;29;20211;-78
2021/05/16 05:19:28;;;;;;;8.07;2.77;;;9.10;99.90;;;;;;4860794;29;20216;-79
2021/05/16 05:21:53;;;;;;;7.17;2.87;;;9.20;99.90;;;;;;4862776;29;20180;-79
2021/05/16 05:24:19;;;;;;;6.53;2.50;;;9.20;99.90;;;;;;4862798;29;20623;-81
2021/05/16 05:26:45;;;;;;;13.65;3.05;;;9.30;99.90;;;;;;4864102;29;20185;-80
2021/05/16 05:29:11;;;;;;;15.43;3.50;;;9.40;99.90;;;;;;4864154;29;20188;-82
2021/05/16 05:31:37;;;;;;;9.57;2.90;;;9.40;99.90;;;;;;4864127;29;20547;-79
2021/05/16 05:34:03;;;;;;;10.38;2.80;;;9.40;99.90;;;;;;4863960;29;20512;-80
2021/05/16 05:36:29;;;;;;;5.83;2.17;;;9.50;99.90;;;;;;4863714;29;20248;-77
2021/05/16 05:38:56;;;;;;;8.10;3.00;;;9.50;99.90;;;;;;4863865;29;20187;-79
2021/05/16 05:41:22;;;;;;;8.32;2.80;;;9.50;99.90;;;;;;4863863;29;20172;-79
2021/05/16 05:43:47;;;;;;;8.93;3.00;;;9.60;99.90;;;;;;4863792;29;20244;-81
2021/05/16 05:46:13;;;;;;;4.47;2.17;;;9.60;99.90;;;;;;4862269;29;20728;-79
2021/05/16 05:48:39;;;;;;;3.83;2.70;;;9.80;99.90;;;;;;4863809;29;20181;-81
2021/05/16 05:51:05;;;;;;;5.53;2.93;;;9.80;99.90;;;;;;4863819;29;20294;-80
2021/05/16 05:53:30;;;;;;;6.80;2.90;;;9.90;99.90;;;;;;4863756;29;20862;-79
2021/05/16 05:55:56;;;;;;;7.93;3.20;;;9.90;99.90;;;;;;4863174;29;20476;-80
2021/05/16 05:58:22;;;;;;;9.00;2.70;;;9.90;99.90;;;;;;4877922;29;20188;-81
2021/05/16 06:00:47;;;;;;;11.90;3.57;;;9.80;99.90;;;;;;4863463;29;20184;-81
2021/05/16 06:03:13;;;;;;;8.80;3.13;;;9.80;99.90;;;;;;4877880;29;20188;-81
2021/05/16 06:05:38;;;;;;;11.33;3.70;;;9.60;99.90;;;;;;4861914;29;20256;-81
2021/05/16 06:08:04;;;;;;;8.97;3.10;;;9.40;99.90;;;;;;4863399;29;20653;-82
2021/05/16 06:10:30;;;;;;;4.73;3.20;;;9.40;99.90;;;;;;4863525;29;20662;-80
2021/05/16 06:12:56;;;;;;;9.50;3.43;;;9.40;99.90;;;;;;4863506;29;20436;-81
2021/05/16 06:15:23;;;;;;;12.23;3.60;;;9.40;99.90;;;;;;4862896;29;20224;-80
2021/05/16 06:17:49;;;;;;;5.80;2.92;;;9.30;99.90;;;;;;4863317;29;20192;-80
2021/05/16 06:20:15;;;;;;;8.50;4.20;;;9.30;99.90;;;;;;4863217;29;20187;-80
2021/05/16 06:22:41;;;;;;;7.30;3.00;;;9.30;99.90;;;;;;4863218;29;20420;-80
2021/05/16 06:25:07;;;;;;;10.90;3.37;;;9.30;99.90;;;;;;4862697;29;20962;-80
2021/05/16 06:27:33;;;;;;;8.63;3.40;;;9.30;99.90;;;;;;4863115;29;20187;-80
2021/05/16 06:29:58;;;;;;;8.03;3.43;;;9.40;99.90;;;;;;4863067;29;20485;-80
2021/05/16 06:32:24;;;;;;;7.53;2.50;;;9.40;99.90;;;;;;4862629;29;20191;-80
2021/05/16 06:34:49;;;;;;;11.50;2.40;;;9.50;99.90;;;;;;4862639;29;20204;-80
2021/05/16 06:37:15;;;;;;;9.23;3.47;;;9.50;99.90;;;;;;4862997;29;20713;-80
2021/05/16 06:39:41;;;;;;;16.30;3.77;;;9.60;99.90;;;;;;4861984;29;20192;-80
2021/05/16 06:42:07;;;;;;;6.10;2.80;;;9.70;99.90;;;;;;4862835;29;20185;-80
2021/05/16 06:44:33;;;;;;;9.18;3.53;;;9.80;99.90;;;;;;4861294;29;20189;-81
2021/05/16 06:46:58;;;;;;;9.33;3.40;;;9.90;99.90;;;;;;4861675;29;20275;-79
2021/05/16 06:49:24;;;;;;;12.83;3.40;;;9.90;99.90;;;;;;4861534;29;20191;-81
2021/05/16 06:51:49;;;;;;;10.03;3.50;;;10.00;99.90;;;;;;4876749;29;20184;-81
2021/05/16 06:54:15;;;;;;;7.60;3.10;;;10.10;99.90;;;;;;4861203;29;20188;-81
2021/05/16 06:56:41;;;;;;;6.17;2.67;;;10.10;99.90;;;;;;4861413;29;20216;-81
2021/05/16 06:59:07;;;;;;;7.93;2.77;;;10.20;99.90;;;;;;4862512;29;20181;-81
2021/05/16 07:01:32;;;;;;;8.20;2.63;;;10.20;99.90;;;;;;4862383;29;20186;-81
2021/05/16 07:03:58;;;;;;;11.63;3.63;;;10.40;99.90;;;;;;4862398;29;20181;-80
2021/05/16 07:06:25;;;;;;;9.77;3.40;;;10.30;99.90;;;;;;4862173;29;20733;-81
2021/05/16 07:08:51;;;;;;;6.40;3.20;;;10.40;99.90;;;;;;4861188;29;20448;-81
2021/05/16 07:11:17;;;;;;;7.00;3.10;;;10.50;99.90;;;;;;4862014;29;20239;-81
2021/05/16 07:13:42;;;;;;;12.40;2.80;;;10.50;99.90;;;;;;4861805;29;20433;-81
2021/05/16 07:16:08;;;;;;;8.00;2.73;;;10.60;99.90;;;;;;4860554;29;20473;-80
2021/05/16 07:18:34;;;;;;;12.13;3.60;;;10.60;99.90;;;;;;4861075;29;20654;-81
2021/05/16 07:21:00;;;;;;;10.10;3.03;;;10.50;99.90;;;;;;4862396;29;20263;-80
2021/05/16 07:23:25;;;;;;;9.27;3.03;;;10.60;99.90;;;;;;4862444;29;20192;-81
2021/05/16 07:25:51;;;;;;;9.63;2.70;;;10.90;99.90;;;;;;4861582;29;20541;-81
2021/05/16 07:28:17;;;;;;;8.33;3.20;;;10.90;99.90;;;;;;4862153;29;20413;-79
2021/05/16 07:30:42;;;;;;;5.20;2.30;;;11.00;99.90;;;;;;4862051;29;20180;-81
2021/05/16 07:33:08;;;;;;;4.07;2.23;;;11.10;99.90;;;;;;4862051;29;20211;-80
2021/05/16 07:35:34;;;;;;;11.03;2.40;;;11.20;99.90;;;;;;4861579;29;20211;-81
2021/05/16 07:38:00;;;;;;;9.60;2.27;;;11.40;99.90;;;;;;4861774;29;20187;-82
2021/05/16 07:40:25;;;;;;;7.60;2.20;;;11.50;99.90;;;;;;4861967;29;20172;-80
2021/05/16 07:42:51;;;;;;;4.67;1.60;;;11.70;99.90;;;;;;4861059;29;20175;-81
2021/05/16 07:45:19;;;;;;;5.63;2.03;;;11.90;99.90;;;;;;4861447;29;20441;-81
2021/05/16 07:47:44;;;;;;;5.93;1.90;;;12.10;99.90;;;;;;4861678;29;20270;-81
2021/05/16 07:50:12;;;;;;;4.33;1.80;;;12.10;99.90;;;;;;4860518;29;20437;-81
2021/05/16 07:52:38;;;;;;;2.37;1.87;;;12.20;99.90;;;;;;4861784;29;20179;-81
2021/05/16 07:55:05;;;;;;;4.53;1.77;;;12.30;99.90;;;;;;4860170;29;20954;-81
2021/05/16 07:57:31;;;;;;;4.37;1.43;;;12.30;99.90;;;;;;4861549;29;20560;-79
2021/05/16 07:59:56;;;;;;;4.87;1.27;;;12.30;99.90;;;;;;4861414;29;20499;-79
2021/05/16 08:02:22;;;;;;;3.97;1.13;;;12.10;99.90;;;;;;4861401;29;20607;-79
2021/05/16 08:04:48;;;;;;;3.10;1.23;;;12.00;99.90;;;;;;4860985;29;20216;-79
2021/05/16 08:07:13;;;;;;;4.00;1.10;;;12.00;99.90;;;;;;4861349;29;20267;-80
2021/05/16 08:09:39;;;;;;;6.37;1.20;;;12.00;99.90;;;;;;4860325;29;20280;-79
2021/05/16 08:12:05;;;;;;;7.23;1.33;;;12.00;99.90;;;;;;4861151;29;20729;-80
2021/05/16 08:14:30;;;;;;;1.40;1.00;;;12.10;99.90;;;;;;4860828;29;20196;-80
2021/05/16 08:16:56;;;;;;;2.40;1.20;;;12.10;99.90;;;;;;4861462;29;20821;-80
2021/05/16 08:19:22;;;;;;;2.43;1.30;;;12.30;99.90;;;;;;4875825;29;20275;-79
2021/05/16 08:21:48;;;;;;;5.87;1.30;;;12.30;99.90;;;;;;4860218;29;20236;-80
2021/05/16 08:24:15;;;;;;;9.20;1.77;;;12.20;99.90;;;;;;4860879;29;20417;-79
2021/05/16 08:26:41;;;;;;;2.57;1.50;;;12.20;99.90;;;;;;4861031;29;20436;-79
2021/05/16 08:29:08;;;;;;;6.80;1.87;;;12.20;99.90;;;;;;4861119;29;20432;-79
2021/05/16 08:31:35;;;;;;;8.47;2.00;;;12.30;99.90;;;;;;4861075;29;20437;-79
2021/05/16 08:34:06;;;;;;;4.73;1.80;;;12.40;99.90;;;;;;4860933;29;20421;-80
2021/05/16 08:36:38;;;;;;;5.07;1.63;;;12.70;99.90;;;;;;4860800;29;20477;-79
2021/05/16 08:39:07;;;;;;;8.20;2.43;;;12.90;99.90;;;;;;4861276;29;20433;-80
2021/05/16 08:41:34;;;;;;;4.90;1.93;;;13.10;99.90;;;;;;4861053;29;20417;-79
2021/05/16 08:44:00;;;;;;;3.67;2.07;;;12.80;99.90;;;;;;4875179;29;20476;-80
2021/05/16 08:46:26;;;;;;;6.20;1.90;;;13.20;99.90;;;;;;4874697;29;20460;-80
2021/05/16 08:48:52;;;;;;;7.17;1.80;;;13.40;99.90;;;;;;4861081;29;20438;-80
2021/05/16 08:51:18;;;;;;;11.70;2.57;;;13.30;99.90;;;;;;4860984;29;20797;-80
2021/05/16 08:53:44;;;;;;;6.47;1.63;;;13.20;99.90;;;;;;4860758;29;20196;-79
2021/05/16 08:56:09;;;;;;;7.10;2.37;;;13.60;99.90;;;;;;4862902;29;20589;-79
2021/05/16 08:58:37;;;;;;;4.23;1.93;;;13.70;99.90;;;;;;4864581;29;20277;-80
2021/05/16 09:01:27;;;;;;;6.60;2.40;;;13.70;99.90;;;;;;4864603;29;20180;-82
2021/05/16 09:03:53;;;;;;;4.33;1.67;;;13.30;99.90;;;;;;4879027;29;20443;-80
2021/05/16 09:06:32;;;;;;;4.57;1.97;;;13.40;99.90;;;;;;4863943;29;20444;-80
2021/05/16 09:09:18;;;;;;;5.67;1.50;;;14.00;99.90;;;;;;4864223;29;20183;-81
2021/05/16 09:12:01;;;;;;;7.10;1.53;;;14.30;99.90;;;;;;4863730;29;20914;-80
2021/05/16 09:14:40;;;;;;;1.93;1.17;;;14.40;99.90;;;;;;4862111;29;20840;-80
2021/05/16 09:17:33;;;;;;;6.97;1.77;;;15.20;99.90;;;;;;4870374;29;20464;-79
2021/05/16 09:20:02;;;;;;;3.93;1.60;;;15.60;99.90;;;;;;4863074;29;20412;-80
2021/05/16 09:22:43;;;;;;;5.97;2.00;;;15.20;99.90;;;;;;4861296;29;20432;-81
2021/05/16 09:25:11;;;;;;;5.40;1.70;;;15.20;99.90;;;;;;4861883;29;20448;-79
2021/05/16 09:27:37;;;;;;;6.13;1.87;;;15.30;99.90;;;;;;4863574;29;20410;-80
2021/05/16 09:30:15;;;;;;;4.70;1.63;;;15.50;99.90;;;;;;4863918;29;20463;-80
2021/05/16 09:32:54;;;;;;;9.40;1.50;;;15.30;99.90;;;;;;4863921;29;20414;-82
2021/05/16 09:35:50;;;;;;;6.90;2.37;;;15.20;99.90;;;;;;4863611;29;20448;-80
2021/05/16 09:38:20;;;;;;;2.70;1.10;;;15.70;99.90;;;;;;4863554;29;20440;-80
2021/05/16 09:40:54;;;;;;;6.17;1.87;;;15.80;99.90;;;;;;4863608;29;20416;-81
2021/05/16 09:43:25;;;;;;;7.17;2.03;;;15.80;99.90;;;;;;4863879;29;20394;-82
2021/05/16 09:46:04;;;;;;;3.53;1.13;;;15.40;99.90;;;;;;4863494;29;20452;-81
2021/05/16 09:48:42;;;;;;;4.63;1.20;;;15.20;99.90;;;;;;4863785;29;20403;-82
2021/05/16 09:51:18;;;;;;;5.03;1.50;;;15.90;99.90;;;;;;4863622;29;20399;-81
2021/05/16 09:53:56;;;;;;;5.63;1.47;;;16.00;99.90;;;;;;4860515;29;20428;-81
2021/05/16 09:56:30;;;;;;;4.60;1.43;;;16.10;99.90;;;;;;4863298;29;20889;-82
2021/05/16 09:58:58;;;;;;;2.00;1.00;;;16.00;99.90;;;;;;4863211;29;20422;-83
2021/05/16 10:01:25;;;;;;;2.93;1.40;;;16.40;99.90;;;;;;4862982;29;20417;-82
2021/05/16 10:03:52;;;;;;;3.87;1.27;;;16.20;99.90;;;;;;4863515;29;20785;-81
2021/05/16 10:06:19;;;;;;;3.47;1.43;;;16.20;99.90;;;;;;4862148;29;20448;-82
2021/05/16 10:08:47;;;;;;;2.17;0.93;;;16.00;99.90;;;;;;4863258;29;20439;-82
2021/05/16 10:11:18;;;;;;;3.40;1.47;;;16.20;99.90;;;;;;4863072;29;20516;-82
2021/05/16 10:14:10;;;;;;;6.00;2.93;;;16.60;99.90;;;;;;4862895;29;20885;-83
2021/05/16 10:16:48;;;;;;;5.57;1.80;;;16.10;99.90;;;;;;4844377;29;20957;-83
2021/05/16 10:19:20;;;;;;;5.80;1.47;;;16.30;99.90;;;;;;4844659;29;20402;-83
2021/05/16 10:22:08;;;;;;;2.90;1.00;;;16.20;99.90;;;;;;4844889;29;20406;-83
2021/05/16 10:24:38;;;;;;;10.23;1.40;;;16.20;99.90;;;;;;4844476;29;20423;-83
2021/05/16 10:27:29;;;;;;;5.73;1.53;;;16.50;99.90;;;;;;4858744;29;20483;-82
2021/05/16 10:30:08;;;;;;;8.20;1.30;;;16.70;99.90;;;;;;4844086;29;20834;-83
2021/05/16 10:32:37;;;;;;;3.43;1.40;;;16.60;99.90;;;;;;4861300;29;20423;-82
2021/05/16 10:35:09;;;;;;;5.83;1.57;;;16.60;99.90;;;;;;4862043;29;20488;-82
2021/05/16 10:37:48;;;;;;;4.40;1.23;;;16.80;99.90;;;;;;4862795;29;20849;-84
2021/05/16 10:40:20;;;;;;;3.63;1.30;;;16.90;99.90;;;;;;4862926;29;20410;-83
2021/05/16 10:42:47;;;;;;;2.30;1.70;;;17.40;99.90;;;;;;4863023;29;20890;-83
2021/05/16 10:45:18;;;;;;;3.00;1.43;;;17.20;99.90;;;;;;4862290;29;20422;-81
2021/05/16 10:47:44;;;;;;;5.40;1.30;;;17.00;99.90;;;;;;4863125;29;20487;-80
2021/05/16 10:50:23;;;;;;;4.67;1.30;;;16.70;99.90;;;;;;4877111;29;20428;-81
2021/05/16 10:53:05;;;;;;;3.67;1.40;;;16.50;99.90;;;;;;4861300;29;20429;-80
2021/05/16 10:55:46;;;;;;;2.90;1.10;;;16.60;99.90;;;;;;4862304;29;20424;-81
2021/05/16 10:58:34;;;;;;;3.87;1.33;;;16.80;99.90;;;;;;4862706;29;20760;-81
2021/05/16 11:01:36;;;;;;;5.10;1.40;;;17.20;99.90;;;;;;4862446;29;20534;-82
2021/05/16 11:04:04;;;;;;;4.97;1.50;;;17.10;99.90;;;;;;4875047;29;20950;-82
2021/05/16 11:06:39;;;;;;;4.70;1.50;;;17.60;99.90;;;;;;4860827;29;20887;-83
2021/05/16 11:09:06;;;;;;;3.27;1.50;;;17.50;99.90;;;;;;4862167;29;20389;-82
2021/05/16 11:11:54;;;;;;;7.37;1.37;;;16.80;99.90;;;;;;4862158;29;20388;-81
2021/05/16 11:14:21;;;;;;;5.67;1.97;;;16.90;99.90;;;;;;4861780;29;20406;-80
2021/05/16 11:16:53;;;;;;;5.23;2.00;;;16.70;99.90;;;;;;4876393;29;20471;-81
2021/05/16 11:19:23;;;;;;;4.27;1.10;;;16.40;99.90;;;;;;4862177;29;20412;-81
2021/05/16 11:21:49;;;;;;;2.77;1.00;;;17.10;99.90;;;;;;4862148;29;20444;-83
2021/05/16 11:24:16;;;;;;;7.10;2.10;;;17.10;99.90;;;;;;4861761;29;20914;-82
2021/05/16 11:26:43;;;;;;;5.27;1.40;;;17.40;99.90;;;;;;4876379;29;20208;-82
2021/05/16 11:29:08;;;;;;;3.00;0.93;;;17.80;99.90;;;;;;4876367;29;20432;-82
2021/05/16 11:31:34;;;;;;;4.00;1.20;;;18.30;99.90;;;;;;4862168;29;20425;-82
2021/05/16 11:34:07;;;;;;;2.70;1.33;;;18.60;99.90;;;;;;4861857;29;20559;-80
2021/05/16 11:36:34;;;;;;;4.40;1.53;;;18.60;99.90;;;;;;4861718;29;20235;-82
2021/05/16 11:39:03;;;;;;;5.77;1.30;;;18.10;99.90;;;;;;4861962;29;20504;-81
2021/05/16 11:41:41;;;;;;;4.30;1.30;;;17.80;99.90;;;;;;4861786;29;20417;-79
2021/05/16 11:44:08;;;;;;;2.83;1.10;;;17.60;99.90;;;;;;4861884;29;20395;-80
2021/05/16 11:46:42;;;;;;;3.70;1.83;;;17.10;99.90;;;;;;4861710;29;20419;-80
2021/05/16 11:49:10;;;;;;;2.83;1.30;;;16.60;99.90;;;;;;4861665;29;21274;-79
2021/05/16 11:51:37;;;;;;;2.40;1.17;;;16.80;99.90;;;;;;4861458;29;20433;-80
2021/05/16 11:54:10;;;;;;;2.23;1.07;;;17.50;99.90;;;;;;4861496;29;20425;-80
2021/05/16 11:56:42;;;;;;;2.33;0.93;;;18.40;99.90;;;;;;4875888;29;20472;-81
2021/05/16 11:59:08;;;;;;;2.03;0.80;;;18.50;99.90;;;;;;4861603;29;20952;-81
2021/05/16 12:01:39;;;;;;;2.00;0.97;;;18.10;99.90;;;;;;4861385;29;20513;-81
2021/05/16 12:04:16;;;;;;;3.23;0.80;;;18.10;99.90;;;;;;4861384;29;20176;-80
2021/05/16 12:06:47;;;;;;;1.03;0.50;;;18.60;99.90;;;;;;4860288;29;20440;-81
2021/05/16 12:09:19;;;;;;;0.90;0.70;;;19.10;99.90;;;;;;4861307;29;20417;-81
2021/05/16 12:11:48;;;;;;;1.40;0.80;;;19.60;99.90;;;;;;4875483;29;20481;-81
2021/05/16 12:14:28;;;;;;;1.23;0.80;;;20.00;99.90;;;;;;4859607;29;20407;-80
2021/05/16 12:16:57;;;;;;;1.97;0.70;;;19.70;99.90;;;;;;4861168;29;20495;-79
2021/05/16 12:19:28;;;;;;;1.10;0.70;;;19.70;99.90;;;;;;4861346;29;20452;-80
2021/05/16 12:22:07;;;;;;;0.97;0.53;;;19.70;99.90;;;;;;4861242;29;20448;-79
2021/05/16 12:24:35;;;;;;;1.63;0.70;;;19.60;99.90;;;;;;4875044;29;20399;-80
2021/05/16 12:27:03;;;;;;;2.67;1.37;;;18.60;99.90;;;;;;4861314;29;20420;-80
2021/05/16 12:29:29;;;;;;;2.40;0.70;;;19.00;99.90;;;;;;4860668;29;20387;-81
2021/05/16 12:31:55;;;;;;;1.97;0.80;;;18.80;99.90;;;;;;4861045;29;20484;-79
2021/05/16 12:34:26;;;;;;;2.40;1.20;;;18.40;99.90;;;;;;4859543;29;20395;-79
2021/05/16 12:36:59;;;;;;;5.17;1.07;;;18.30;99.90;;;;;;4860969;29;20195;-79
2021/05/16 12:39:45;;;;;;;2.00;1.20;;;18.00;99.90;;;;;;4861165;29;20473;-81
2021/05/16 12:42:37;;;;;;;3.37;1.10;;;17.90;99.90;;;;;;4860792;29;20402;-81
2021/05/16 12:45:22;;;;;;;4.87;1.10;;;17.80;99.90;;;;;;4860608;29;20408;-78
2021/05/16 12:48:19;;;;;;;2.07;0.90;;;17.30;99.90;;;;;;4861113;29;20566;-80
2021/05/16 12:50:48;;;;;;;3.00;1.17;;;17.20;99.90;;;;;;4860995;29;20397;-77
2021/05/16 12:53:42;;;;;;;6.10;1.83;;;16.80;99.90;;;;;;4860992;29;20450;-78
2021/05/16 12:56:23;;;;;;;3.00;1.00;;;16.20;99.90;;;;;;4860335;29;20833;-81
2021/05/16 12:59:02;;;;;;;6.80;1.70;;;15.50;99.90;;;;;;4860942;29;20417;-79